sensor_id;sensor_type;location;lat;lon;timestamp;P1;durP1;ratioP1;P2;durP2;ratioP2
10633;SDS011;5365;51.640;8.106;2022-10-30T00:00:58;17.70;;;10.10;;
10633;SDS011;5365;51.640;8.106;2022-10-30T00:03:20;16.43;;;10.00;;
10633;SDS011;5365;51.640;8.106;2022-10-30T00:05:42;16.47;;;10.40;;
10633;SDS011;5365;51.640;8.106;2022-10-30T00:08:05;15.20;;;9.70;;
10633;SDS011;5365;51.640;8.106;2022-10-30T00:10:26;16.27;;;9.53;;
10633;SDS011;5365;51.640;8.106;2022-10-30T00:12:48;20.37;;;9.57;;
10633;SDS011;5365;51.640;8.106;2022-10-30T00:15:10;15.57;;;9.10;;
10633;SDS011;5365;51.640;8.106;2022-10-30T00:17:31;12.70;;;8.50;;
10633;SDS011;5365;51.640;8.106;2022-10-30T00:19:53;17.77;;;10.00;;
10633;SDS011;5365;51.640;8.106;2022-10-30T00:22:15;15.53;;;10.03;;
10633;SDS011;5365;51.640;8.106;2022-10-30T00:24:37;13.70;;;9.63;;
10633;SDS011;5365;51.640;8.106;2022-10-30T00:26:58;16.40;;;9.30;;
10633;SDS011;5365;51.640;8.106;2022-10-30T00:29:20;15.30;;;9.93;;
10633;SDS011;5365;51.640;8.106;2022-10-30T00:31:46;15.27;;;8.50;;
10633;SDS011;5365;51.640;8.106;2022-10-30T00:34:08;14.23;;;9.17;;
10633;SDS011;5365;51.640;8.106;2022-10-30T00:36:30;13.67;;;8.70;;
10633;SDS011;5365;51.640;8.106;2022-10-30T00:38:51;16.07;;;9.77;;
10633;SDS011;5365;51.640;8.106;2022-10-30T00:41:15;14.40;;;9.07;;
10633;SDS011;5365;51.640;8.106;2022-10-30T00:43:39;11.53;;;8.77;;
10633;SDS011;5365;51.640;8.106;2022-10-30T00:46:04;15.57;;;8.43;;
10633;SDS011;5365;51.640;8.106;2022-10-30T00:48:29;10.83;;;7.87;;
10633;SDS011;5365;51.640;8.106;2022-10-30T00:50:50;13.07;;;8.00;;
10633;SDS011;5365;51.640;8.106;2022-10-30T00:53:13;13.57;;;7.97;;
10633;SDS011;5365;51.640;8.106;2022-10-30T00:55:40;13.63;;;7.90;;
10633;SDS011;5365;51.640;8.106;2022-10-30T00:58:05;11.37;;;8.00;;
10633;SDS011;5365;51.640;8.106;2022-10-30T01:00:29;12.67;;;7.87;;
10633;SDS011;5365;51.640;8.106;2022-10-30T01:02:51;13.03;;;7.50;;
10633;SDS011;5365;51.640;8.106;2022-10-30T01:05:14;13.10;;;8.30;;
10633;SDS011;5365;51.640;8.106;2022-10-30T01:07:37;9.90;;;8.13;;
10633;SDS011;5365;51.640;8.106;2022-10-30T01:09:59;11.17;;;8.33;;
10633;SDS011;5365;51.640;8.106;2022-10-30T01:12:21;14.00;;;8.77;;
10633;SDS011;5365;51.640;8.106;2022-10-30T01:14:45;13.27;;;9.10;;
10633;SDS011;5365;51.640;8.106;2022-10-30T01:24:57;14.63;;;8.47;;
10633;SDS011;5365;51.640;8.106;2022-10-30T01:27:27;13.23;;;8.63;;
10633;SDS011;5365;51.640;8.106;2022-10-30T01:30:02;13.60;;;7.97;;
10633;SDS011;5365;51.640;8.106;2022-10-30T01:35:27;12.33;;;8.70;;
10633;SDS011;5365;51.640;8.106;2022-10-30T01:37:56;15.00;;;7.37;;
10633;SDS011;5365;51.640;8.106;2022-10-30T01:40:23;15.40;;;8.10;;
10633;SDS011;5365;51.640;8.106;2022-10-30T01:42:50;14.07;;;7.57;;
10633;SDS011;5365;51.640;8.106;2022-10-30T01:48:49;11.77;;;7.23;;
10633;SDS011;5365;51.640;8.106;2022-10-30T01:56:13;12.40;;;8.00;;
10633;SDS011;5365;51.640;8.106;2022-10-30T01:58:43;14.10;;;8.25;;
10633;SDS011;5365;51.640;8.106;2022-10-30T02:01:11;16.17;;;8.00;;
10633;SDS011;5365;51.640;8.106;2022-10-30T02:03:33;15.80;;;8.13;;
10633;SDS011;5365;51.640;8.106;2022-10-30T02:05:55;13.53;;;7.57;;
10633;SDS011;5365;51.640;8.106;2022-10-30T02:08:17;12.50;;;8.07;;
10633;SDS011;5365;51.640;8.106;2022-10-30T02:10:40;11.83;;;8.73;;
10633;SDS011;5365;51.640;8.106;2022-10-30T02:13:04;16.90;;;8.00;;
10633;SDS011;5365;51.640;8.106;2022-10-30T02:15:26;13.60;;;7.67;;
10633;SDS011;5365;51.640;8.106;2022-10-30T02:17:47;14.27;;;7.80;;
10633;SDS011;5365;51.640;8.106;2022-10-30T02:20:15;10.63;;;7.80;;
10633;SDS011;5365;51.640;8.106;2022-10-30T02:22:37;13.10;;;7.47;;
10633;SDS011;5365;51.640;8.106;2022-10-30T02:24:59;10.90;;;7.57;;
10633;SDS011;5365;51.640;8.106;2022-10-30T02:27:21;11.37;;;8.17;;
10633;SDS011;5365;51.640;8.106;2022-10-30T02:29:42;11.93;;;8.83;;
10633;SDS011;5365;51.640;8.106;2022-10-30T02:32:04;14.23;;;8.17;;
10633;SDS011;5365;51.640;8.106;2022-10-30T02:34:28;16.43;;;8.20;;
10633;SDS011;5365;51.640;8.106;2022-10-30T02:36:51;13.53;;;8.47;;
10633;SDS011;5365;51.640;8.106;2022-10-30T02:39:14;11.43;;;8.67;;
10633;SDS011;5365;51.640;8.106;2022-10-30T02:41:36;11.23;;;8.33;;
10633;SDS011;5365;51.640;8.106;2022-10-30T02:43:58;13.10;;;8.00;;
10633;SDS011;5365;51.640;8.106;2022-10-30T02:46:19;12.67;;;8.40;;
10633;SDS011;5365;51.640;8.106;2022-10-30T02:48:42;11.90;;;8.73;;
10633;SDS011;5365;51.640;8.106;2022-10-30T02:51:04;12.37;;;8.67;;
10633;SDS011;5365;51.640;8.106;2022-10-30T02:53:26;13.63;;;9.33;;
10633;SDS011;5365;51.640;8.106;2022-10-30T02:55:47;12.70;;;8.73;;
10633;SDS011;5365;51.640;8.106;2022-10-30T02:58:09;15.90;;;8.60;;
10633;SDS011;5365;51.640;8.106;2022-10-30T03:00:31;15.27;;;9.73;;
10633;SDS011;5365;51.640;8.106;2022-10-30T03:02:54;13.97;;;9.03;;
10633;SDS011;5365;51.640;8.106;2022-10-30T03:05:16;11.70;;;8.70;;
10633;SDS011;5365;51.640;8.106;2022-10-30T03:07:38;14.07;;;9.73;;
10633;SDS011;5365;51.640;8.106;2022-10-30T03:09:59;14.60;;;9.60;;
10633;SDS011;5365;51.640;8.106;2022-10-30T03:12:23;15.70;;;9.67;;
10633;SDS011;5365;51.640;8.106;2022-10-30T03:14:45;13.83;;;9.70;;
10633;SDS011;5365;51.640;8.106;2022-10-30T03:17:07;20.40;;;10.60;;
10633;SDS011;5365;51.640;8.106;2022-10-30T03:19:30;14.03;;;10.17;;
10633;SDS011;5365;51.640;8.106;2022-10-30T03:21:52;16.33;;;10.73;;
10633;SDS011;5365;51.640;8.106;2022-10-30T03:24:14;16.30;;;10.57;;
10633;SDS011;5365;51.640;8.106;2022-10-30T03:26:38;13.27;;;9.80;;
10633;SDS011;5365;51.640;8.106;2022-10-30T03:29:01;12.30;;;9.30;;
10633;SDS011;5365;51.640;8.106;2022-10-30T03:31:22;13.03;;;9.50;;
10633;SDS011;5365;51.640;8.106;2022-10-30T03:34:00;14.90;;;9.47;;
10633;SDS011;5365;51.640;8.106;2022-10-30T03:36:24;14.87;;;9.73;;
10633;SDS011;5365;51.640;8.106;2022-10-30T03:38:46;13.90;;;9.50;;
10633;SDS011;5365;51.640;8.106;2022-10-30T03:41:11;14.63;;;9.93;;
10633;SDS011;5365;51.640;8.106;2022-10-30T03:43:33;19.87;;;9.57;;
10633;SDS011;5365;51.640;8.106;2022-10-30T03:45:56;21.53;;;10.63;;
10633;SDS011;5365;51.640;8.106;2022-10-30T03:48:18;17.63;;;10.80;;
10633;SDS011;5365;51.640;8.106;2022-10-30T03:50:42;15.40;;;9.93;;
10633;SDS011;5365;51.640;8.106;2022-10-30T03:53:04;19.37;;;10.53;;
10633;SDS011;5365;51.640;8.106;2022-10-30T03:55:26;17.20;;;10.07;;
10633;SDS011;5365;51.640;8.106;2022-10-30T03:57:47;14.00;;;10.47;;
10633;SDS011;5365;51.640;8.106;2022-10-30T04:00:11;16.50;;;9.83;;
10633;SDS011;5365;51.640;8.106;2022-10-30T04:02:47;14.43;;;9.70;;
10633;SDS011;5365;51.640;8.106;2022-10-30T04:05:10;13.63;;;9.60;;
10633;SDS011;5365;51.640;8.106;2022-10-30T04:07:32;17.33;;;9.87;;
10633;SDS011;5365;51.640;8.106;2022-10-30T04:09:53;13.30;;;9.00;;
10633;SDS011;5365;51.640;8.106;2022-10-30T04:12:15;15.53;;;10.07;;
10633;SDS011;5365;51.640;8.106;2022-10-30T04:14:37;12.80;;;9.13;;
10633;SDS011;5365;51.640;8.106;2022-10-30T04:16:59;12.13;;;8.80;;
10633;SDS011;5365;51.640;8.106;2022-10-30T04:19:21;12.07;;;8.77;;
10633;SDS011;5365;51.640;8.106;2022-10-30T04:21:42;14.80;;;9.87;;
10633;SDS011;5365;51.640;8.106;2022-10-30T04:24:05;11.53;;;8.77;;
10633;SDS011;5365;51.640;8.106;2022-10-30T04:26:28;13.13;;;9.20;;
10633;SDS011;5365;51.640;8.106;2022-10-30T04:28:51;14.97;;;9.20;;
10633;SDS011;5365;51.640;8.106;2022-10-30T04:31:12;13.93;;;9.40;;
10633;SDS011;5365;51.640;8.106;2022-10-30T04:33:34;15.47;;;9.30;;
10633;SDS011;5365;51.640;8.106;2022-10-30T04:35:56;15.70;;;9.50;;
10633;SDS011;5365;51.640;8.106;2022-10-30T04:38:17;14.83;;;8.90;;
10633;SDS011;5365;51.640;8.106;2022-10-30T04:40:41;17.97;;;10.37;;
10633;SDS011;5365;51.640;8.106;2022-10-30T04:43:05;14.83;;;9.77;;
10633;SDS011;5365;51.640;8.106;2022-10-30T04:45:28;16.27;;;9.70;;
10633;SDS011;5365;51.640;8.106;2022-10-30T04:47:50;14.87;;;10.00;;
10633;SDS011;5365;51.640;8.106;2022-10-30T04:50:12;12.80;;;9.43;;
10633;SDS011;5365;51.640;8.106;2022-10-30T04:52:34;15.47;;;8.77;;
10633;SDS011;5365;51.640;8.106;2022-10-30T04:54:56;15.57;;;9.87;;
10633;SDS011;5365;51.640;8.106;2022-10-30T04:57:17;14.40;;;8.73;;
10633;SDS011;5365;51.640;8.106;2022-10-30T04:59:39;16.77;;;9.70;;
10633;SDS011;5365;51.640;8.106;2022-10-30T05:02:01;15.60;;;9.80;;
10633;SDS011;5365;51.640;8.106;2022-10-30T05:04:23;14.43;;;8.97;;
10633;SDS011;5365;51.640;8.106;2022-10-30T05:06:44;11.63;;;8.83;;
10633;SDS011;5365;51.640;8.106;2022-10-30T05:09:07;12.27;;;9.40;;
10633;SDS011;5365;51.640;8.106;2022-10-30T05:11:32;14.97;;;9.57;;
10633;SDS011;5365;51.640;8.106;2022-10-30T05:13:54;14.77;;;8.17;;
10633;SDS011;5365;51.640;8.106;2022-10-30T05:16:16;16.97;;;9.23;;
10633;SDS011;5365;51.640;8.106;2022-10-30T05:18:37;15.23;;;9.30;;
10633;SDS011;5365;51.640;8.106;2022-10-30T05:20:59;16.20;;;8.83;;
10633;SDS011;5365;51.640;8.106;2022-10-30T05:23:21;13.20;;;8.97;;
10633;SDS011;5365;51.640;8.106;2022-10-30T05:25:43;14.30;;;9.67;;
10633;SDS011;5365;51.640;8.106;2022-10-30T05:28:06;13.50;;;8.97;;
10633;SDS011;5365;51.640;8.106;2022-10-30T05:30:35;17.17;;;10.00;;
10633;SDS011;5365;51.640;8.106;2022-10-30T05:33:04;15.07;;;8.70;;
10633;SDS011;5365;51.640;8.106;2022-10-30T05:35:28;15.70;;;9.07;;
10633;SDS011;5365;51.640;8.106;2022-10-30T05:37:50;13.50;;;9.07;;
10633;SDS011;5365;51.640;8.106;2022-10-30T05:40:12;15.90;;;9.50;;
10633;SDS011;5365;51.640;8.106;2022-10-30T05:42:34;11.83;;;8.67;;
10633;SDS011;5365;51.640;8.106;2022-10-30T05:44:58;13.63;;;9.00;;
10633;SDS011;5365;51.640;8.106;2022-10-30T05:47:21;14.80;;;9.27;;
10633;SDS011;5365;51.640;8.106;2022-10-30T05:49:46;14.37;;;9.27;;
10633;SDS011;5365;51.640;8.106;2022-10-30T05:52:12;15.40;;;9.50;;
10633;SDS011;5365;51.640;8.106;2022-10-30T05:54:34;17.50;;;8.80;;
10633;SDS011;5365;51.640;8.106;2022-10-30T05:57:18;14.70;;;9.70;;
10633;SDS011;5365;51.640;8.106;2022-10-30T05:59:40;15.03;;;10.53;;
10633;SDS011;5365;51.640;8.106;2022-10-30T06:02:02;14.40;;;9.67;;
10633;SDS011;5365;51.640;8.106;2022-10-30T06:04:24;12.33;;;8.57;;
10633;SDS011;5365;51.640;8.106;2022-10-30T06:06:47;12.67;;;8.73;;
10633;SDS011;5365;51.640;8.106;2022-10-30T06:09:08;11.33;;;8.90;;
10633;SDS011;5365;51.640;8.106;2022-10-30T06:11:48;16.43;;;9.63;;
10633;SDS011;5365;51.640;8.106;2022-10-30T06:14:13;13.67;;;9.13;;
10633;SDS011;5365;51.640;8.106;2022-10-30T06:16:41;19.03;;;9.43;;
10633;SDS011;5365;51.640;8.106;2022-10-30T06:19:26;12.17;;;8.93;;
10633;SDS011;5365;51.640;8.106;2022-10-30T06:21:54;15.27;;;8.97;;
10633;SDS011;5365;51.640;8.106;2022-10-30T06:24:34;14.57;;;10.10;;
10633;SDS011;5365;51.640;8.106;2022-10-30T06:27:14;11.00;;;7.97;;
10633;SDS011;5365;51.640;8.106;2022-10-30T06:29:36;12.43;;;8.37;;
10633;SDS011;5365;51.640;8.106;2022-10-30T06:31:57;11.03;;;8.27;;
10633;SDS011;5365;51.640;8.106;2022-10-30T06:34:20;7.33;;;6.60;;
10633;SDS011;5365;51.640;8.106;2022-10-30T06:36:42;13.80;;;8.37;;
10633;SDS011;5365;51.640;8.106;2022-10-30T06:39:04;12.27;;;8.20;;
10633;SDS011;5365;51.640;8.106;2022-10-30T06:41:37;14.40;;;8.90;;
10633;SDS011;5365;51.640;8.106;2022-10-30T06:44:12;11.00;;;8.03;;
10633;SDS011;5365;51.640;8.106;2022-10-30T06:46:34;11.57;;;8.67;;
10633;SDS011;5365;51.640;8.106;2022-10-30T06:48:56;14.73;;;8.20;;
10633;SDS011;5365;51.640;8.106;2022-10-30T06:51:19;14.10;;;9.33;;
10633;SDS011;5365;51.640;8.106;2022-10-30T06:53:41;15.53;;;8.60;;
10633;SDS011;5365;51.640;8.106;2022-10-30T06:56:21;15.60;;;8.57;;
10633;SDS011;5365;51.640;8.106;2022-10-30T06:59:00;13.53;;;9.33;;
10633;SDS011;5365;51.640;8.106;2022-10-30T07:01:31;18.17;;;10.00;;
10633;SDS011;5365;51.640;8.106;2022-10-30T07:04:18;15.77;;;8.67;;
10633;SDS011;5365;51.640;8.106;2022-10-30T07:06:39;15.07;;;9.20;;
10633;SDS011;5365;51.640;8.106;2022-10-30T07:09:01;15.13;;;9.00;;
10633;SDS011;5365;51.640;8.106;2022-10-30T07:11:23;15.00;;;9.17;;
10633;SDS011;5365;51.640;8.106;2022-10-30T07:14:09;15.87;;;9.23;;
10633;SDS011;5365;51.640;8.106;2022-10-30T07:16:40;14.23;;;9.63;;
10633;SDS011;5365;51.640;8.106;2022-10-30T07:19:02;17.83;;;9.67;;
10633;SDS011;5365;51.640;8.106;2022-10-30T07:21:25;15.20;;;9.57;;
10633;SDS011;5365;51.640;8.106;2022-10-30T07:23:47;16.50;;;9.47;;
10633;SDS011;5365;51.640;8.106;2022-10-30T07:26:18;14.90;;;9.30;;
10633;SDS011;5365;51.640;8.106;2022-10-30T07:28:40;16.93;;;9.53;;
10633;SDS011;5365;51.640;8.106;2022-10-30T07:31:13;16.30;;;10.07;;
10633;SDS011;5365;51.640;8.106;2022-10-30T07:34:01;15.20;;;9.07;;
10633;SDS011;5365;51.640;8.106;2022-10-30T07:36:42;14.87;;;9.60;;
10633;SDS011;5365;51.640;8.106;2022-10-30T07:39:17;18.20;;;11.07;;
10633;SDS011;5365;51.640;8.106;2022-10-30T07:42:05;17.00;;;10.20;;
10633;SDS011;5365;51.640;8.106;2022-10-30T07:44:36;15.67;;;9.87;;
10633;SDS011;5365;51.640;8.106;2022-10-30T07:47:24;19.83;;;10.40;;
10633;SDS011;5365;51.640;8.106;2022-10-30T07:49:54;18.00;;;10.53;;
10633;SDS011;5365;51.640;8.106;2022-10-30T07:52:16;18.43;;;11.03;;
10633;SDS011;5365;51.640;8.106;2022-10-30T07:54:39;17.40;;;11.87;;
10633;SDS011;5365;51.640;8.106;2022-10-30T07:57:19;20.00;;;11.83;;
10633;SDS011;5365;51.640;8.106;2022-10-30T08:00:20;16.77;;;11.60;;
10633;SDS011;5365;51.640;8.106;2022-10-30T08:02:50;22.73;;;12.63;;
10633;SDS011;5365;51.640;8.106;2022-10-30T08:05:21;19.80;;;11.50;;
10633;SDS011;5365;51.640;8.106;2022-10-30T08:07:59;21.53;;;12.97;;
10633;SDS011;5365;51.640;8.106;2022-10-30T08:10:21;26.17;;;13.67;;
10633;SDS011;5365;51.640;8.106;2022-10-30T08:12:43;21.97;;;13.97;;
10633;SDS011;5365;51.640;8.106;2022-10-30T08:15:06;20.93;;;13.53;;
10633;SDS011;5365;51.640;8.106;2022-10-30T08:17:29;18.83;;;12.40;;
10633;SDS011;5365;51.640;8.106;2022-10-30T08:19:51;24.03;;;12.77;;
10633;SDS011;5365;51.640;8.106;2022-10-30T08:22:13;18.67;;;12.67;;
10633;SDS011;5365;51.640;8.106;2022-10-30T08:24:37;23.00;;;12.90;;
10633;SDS011;5365;51.640;8.106;2022-10-30T08:26:59;19.97;;;11.60;;
10633;SDS011;5365;51.640;8.106;2022-10-30T08:29:21;20.77;;;12.60;;
10633;SDS011;5365;51.640;8.106;2022-10-30T08:31:46;21.33;;;12.47;;
10633;SDS011;5365;51.640;8.106;2022-10-30T08:34:17;21.80;;;12.53;;
10633;SDS011;5365;51.640;8.106;2022-10-30T08:36:43;18.60;;;13.03;;
10633;SDS011;5365;51.640;8.106;2022-10-30T08:39:05;22.57;;;14.00;;
10633;SDS011;5365;51.640;8.106;2022-10-30T08:41:42;20.17;;;11.90;;
10633;SDS011;5365;51.640;8.106;2022-10-30T08:44:04;24.80;;;12.13;;
10633;SDS011;5365;51.640;8.106;2022-10-30T08:46:46;16.93;;;11.47;;
10633;SDS011;5365;51.640;8.106;2022-10-30T08:49:07;20.37;;;11.53;;
10633;SDS011;5365;51.640;8.106;2022-10-30T08:51:34;17.00;;;10.53;;
10633;SDS011;5365;51.640;8.106;2022-10-30T08:53:56;16.97;;;10.90;;
10633;SDS011;5365;51.640;8.106;2022-10-30T08:56:18;16.37;;;10.03;;
10633;SDS011;5365;51.640;8.106;2022-10-30T08:58:51;14.03;;;9.13;;
10633;SDS011;5365;51.640;8.106;2022-10-30T09:01:13;11.45;;;9.25;;
10633;SDS011;5365;51.640;8.106;2022-10-30T09:03:55;15.15;;;8.65;;
10633;SDS011;5365;51.640;8.106;2022-10-30T09:06:35;11.45;;;8.32;;
10633;SDS011;5365;51.640;8.106;2022-10-30T09:09:33;13.05;;;8.23;;
10633;SDS011;5365;51.640;8.106;2022-10-30T09:11:56;12.65;;;8.20;;
10633;SDS011;5365;51.640;8.106;2022-10-30T09:14:18;10.23;;;8.07;;
10633;SDS011;5365;51.640;8.106;2022-10-30T09:16:40;11.30;;;7.75;;
10633;SDS011;5365;51.640;8.106;2022-10-30T09:19:02;13.25;;;8.63;;
10633;SDS011;5365;51.640;8.106;2022-10-30T09:21:24;12.90;;;8.38;;
10633;SDS011;5365;51.640;8.106;2022-10-30T09:23:47;15.43;;;8.25;;
10633;SDS011;5365;51.640;8.106;2022-10-30T09:26:32;15.80;;;8.90;;
10633;SDS011;5365;51.640;8.106;2022-10-30T09:29:22;13.75;;;8.55;;
10633;SDS011;5365;51.640;8.106;2022-10-30T09:31:53;17.98;;;9.82;;
10633;SDS011;5365;51.640;8.106;2022-10-30T09:34:17;12.63;;;7.88;;
10633;SDS011;5365;51.640;8.106;2022-10-30T09:36:45;11.90;;;8.05;;
10633;SDS011;5365;51.640;8.106;2022-10-30T09:39:08;13.65;;;7.78;;
10633;SDS011;5365;51.640;8.106;2022-10-30T09:47:04;13.18;;;7.00;;
10633;SDS011;5365;51.640;8.106;2022-10-30T09:49:50;10.20;;;6.93;;
10633;SDS011;5365;51.640;8.106;2022-10-30T09:52:25;13.00;;;7.53;;
10633;SDS011;5365;51.640;8.106;2022-10-30T09:57:36;12.48;;;7.15;;
10633;SDS011;5365;51.640;8.106;2022-10-30T10:00:34;8.43;;;7.13;;
10633;SDS011;5365;51.640;8.106;2022-10-30T10:03:16;7.57;;;6.72;;
10633;SDS011;5365;51.640;8.106;2022-10-30T10:06:14;12.48;;;7.05;;
10633;SDS011;5365;51.640;8.106;2022-10-30T10:09:17;9.25;;;6.30;;
10633;SDS011;5365;51.640;8.106;2022-10-30T10:12:01;12.65;;;5.90;;
10633;SDS011;5365;51.640;8.106;2022-10-30T10:14:29;8.75;;;6.13;;
10633;SDS011;5365;51.640;8.106;2022-10-30T10:16:54;8.65;;;6.93;;
10633;SDS011;5365;51.640;8.106;2022-10-30T10:22:02;12.05;;;5.65;;
10633;SDS011;5365;51.640;8.106;2022-10-30T10:24:29;12.65;;;5.50;;
10633;SDS011;5365;51.640;8.106;2022-10-30T10:26:56;10.07;;;4.95;;
10633;SDS011;5365;51.640;8.106;2022-10-30T10:29:25;8.32;;;4.68;;
10633;SDS011;5365;51.640;8.106;2022-10-30T10:37:34;7.47;;;5.22;;
10633;SDS011;5365;51.640;8.106;2022-10-30T10:40:11;8.18;;;4.13;;
10633;SDS011;5365;51.640;8.106;2022-10-30T10:42:51;7.38;;;4.40;;
10633;SDS011;5365;51.640;8.106;2022-10-30T10:50:33;11.02;;;4.80;;
10633;SDS011;5365;51.640;8.106;2022-10-30T10:53:01;6.75;;;4.20;;
10633;SDS011;5365;51.640;8.106;2022-10-30T10:55:28;8.77;;;4.10;;
10633;SDS011;5365;51.640;8.106;2022-10-30T10:57:52;7.18;;;4.13;;
10633;SDS011;5365;51.640;8.106;2022-10-30T11:00:19;5.68;;;4.03;;
10633;SDS011;5365;51.640;8.106;2022-10-30T11:08:05;11.80;;;4.80;;
10633;SDS011;5365;51.640;8.106;2022-10-30T11:10:32;10.05;;;4.38;;
10633;SDS011;5365;51.640;8.106;2022-10-30T11:12:54;6.50;;;4.18;;
10633;SDS011;5365;51.640;8.106;2022-10-30T11:20:18;6.68;;;4.15;;
10633;SDS011;5365;51.640;8.106;2022-10-30T11:22:42;9.05;;;4.68;;
10633;SDS011;5365;51.640;8.106;2022-10-30T11:25:26;4.93;;;4.30;;
10633;SDS011;5365;51.640;8.106;2022-10-30T11:27:56;9.32;;;4.07;;
10633;SDS011;5365;51.640;8.106;2022-10-30T11:30:21;9.20;;;4.43;;
10633;SDS011;5365;51.640;8.106;2022-10-30T11:32:44;9.63;;;4.43;;
10633;SDS011;5365;51.640;8.106;2022-10-30T11:35:12;5.95;;;4.22;;
10633;SDS011;5365;51.640;8.106;2022-10-30T11:37:36;11.82;;;4.28;;
10633;SDS011;5365;51.640;8.106;2022-10-30T11:42:33;10.55;;;4.20;;
10633;SDS011;5365;51.640;8.106;2022-10-30T11:44:55;7.72;;;4.43;;
10633;SDS011;5365;51.640;8.106;2022-10-30T11:47:18;7.03;;;4.15;;
10633;SDS011;5365;51.640;8.106;2022-10-30T11:52:06;7.85;;;4.15;;
10633;SDS011;5365;51.640;8.106;2022-10-30T11:54:28;7.88;;;3.97;;
10633;SDS011;5365;51.640;8.106;2022-10-30T11:56:50;8.77;;;4.10;;
10633;SDS011;5365;51.640;8.106;2022-10-30T11:59:13;7.80;;;4.55;;
10633;SDS011;5365;51.640;8.106;2022-10-30T12:01:39;9.18;;;4.05;;
10633;SDS011;5365;51.640;8.106;2022-10-30T12:04:21;10.07;;;4.30;;
10633;SDS011;5365;51.640;8.106;2022-10-30T12:06:45;8.27;;;3.90;;
10633;SDS011;5365;51.640;8.106;2022-10-30T12:09:15;5.18;;;4.25;;
10633;SDS011;5365;51.640;8.106;2022-10-30T12:11:41;6.32;;;4.53;;
10633;SDS011;5365;51.640;8.106;2022-10-30T12:14:12;10.82;;;4.47;;
10633;SDS011;5365;51.640;8.106;2022-10-30T12:16:45;8.55;;;4.10;;
10633;SDS011;5365;51.640;8.106;2022-10-30T12:19:10;7.90;;;4.85;;
10633;SDS011;5365;51.640;8.106;2022-10-30T12:21:36;10.88;;;4.50;;
10633;SDS011;5365;51.640;8.106;2022-10-30T12:24:01;9.00;;;4.35;;
10633;SDS011;5365;51.640;8.106;2022-10-30T12:26:27;8.07;;;4.47;;
10633;SDS011;5365;51.640;8.106;2022-10-30T12:28:52;8.32;;;4.18;;
10633;SDS011;5365;51.640;8.106;2022-10-30T12:31:17;7.05;;;4.25;;
10633;SDS011;5365;51.640;8.106;2022-10-30T12:33:43;6.85;;;4.15;;
10633;SDS011;5365;51.640;8.106;2022-10-30T12:36:12;7.03;;;3.75;;
10633;SDS011;5365;51.640;8.106;2022-10-30T12:41:39;8.63;;;4.13;;
10633;SDS011;5365;51.640;8.106;2022-10-30T12:44:09;8.43;;;4.40;;
10633;SDS011;5365;51.640;8.106;2022-10-30T12:46:40;8.85;;;4.70;;
10633;SDS011;5365;51.640;8.106;2022-10-30T12:49:13;6.10;;;4.18;;
10633;SDS011;5365;51.640;8.106;2022-10-30T12:51:42;10.77;;;3.95;;
10633;SDS011;5365;51.640;8.106;2022-10-30T12:54:18;8.48;;;4.40;;
10633;SDS011;5365;51.640;8.106;2022-10-30T12:56:42;5.80;;;4.35;;
10633;SDS011;5365;51.640;8.106;2022-10-30T13:04:26;7.50;;;3.97;;
10633;SDS011;5365;51.640;8.106;2022-10-30T13:09:37;8.15;;;4.35;;
10633;SDS011;5365;51.640;8.106;2022-10-30T13:12:15;8.13;;;4.45;;
10633;SDS011;5365;51.640;8.106;2022-10-30T13:14:49;7.30;;;4.35;;
10633;SDS011;5365;51.640;8.106;2022-10-30T13:17:33;9.55;;;4.40;;
10633;SDS011;5365;51.640;8.106;2022-10-30T13:19:54;9.80;;;4.53;;
10633;SDS011;5365;51.640;8.106;2022-10-30T13:22:50;12.73;;;4.10;;
10633;SDS011;5365;51.640;8.106;2022-10-30T13:30:09;7.75;;;4.10;;
10633;SDS011;5365;51.640;8.106;2022-10-30T13:38:08;4.75;;;4.15;;
10633;SDS011;5365;51.640;8.106;2022-10-30T13:40:40;8.82;;;4.03;;
10633;SDS011;5365;51.640;8.106;2022-10-30T13:48:37;6.80;;;4.38;;
10633;SDS011;5365;51.640;8.106;2022-10-30T13:53:37;6.32;;;4.30;;
10633;SDS011;5365;51.640;8.106;2022-10-30T13:56:01;6.72;;;4.28;;
10633;SDS011;5365;51.640;8.106;2022-10-30T13:58:24;10.23;;;4.07;;
10633;SDS011;5365;51.640;8.106;2022-10-30T14:00:59;11.82;;;5.07;;
10633;SDS011;5365;51.640;8.106;2022-10-30T14:06:51;7.53;;;5.00;;
10633;SDS011;5365;51.640;8.106;2022-10-30T14:11:54;15.10;;;5.25;;
10633;SDS011;5365;51.640;8.106;2022-10-30T14:16:44;8.43;;;5.20;;
10633;SDS011;5365;51.640;8.106;2022-10-30T14:19:07;6.10;;;5.05;;
10633;SDS011;5365;51.640;8.106;2022-10-30T14:24:00;12.45;;;6.13;;
10633;SDS011;5365;51.640;8.106;2022-10-30T14:26:46;8.60;;;4.65;;
10633;SDS011;5365;51.640;8.106;2022-10-30T14:31:54;6.75;;;5.32;;
10633;SDS011;5365;51.640;8.106;2022-10-30T14:37:02;17.30;;;5.30;;
10633;SDS011;5365;51.640;8.106;2022-10-30T14:39:25;10.05;;;5.50;;
10633;SDS011;5365;51.640;8.106;2022-10-30T14:47:44;12.60;;;5.93;;
10633;SDS011;5365;51.640;8.106;2022-10-30T14:53:07;9.55;;;5.20;;
10633;SDS011;5365;51.640;8.106;2022-10-30T14:55:32;9.45;;;5.00;;
10633;SDS011;5365;51.640;8.106;2022-10-30T15:02:54;12.57;;;5.72;;
10633;SDS011;5365;51.640;8.106;2022-10-30T15:05:42;9.90;;;6.22;;
10633;SDS011;5365;51.640;8.106;2022-10-30T15:13:22;12.85;;;5.60;;
10633;SDS011;5365;51.640;8.106;2022-10-30T15:15:44;6.70;;;5.07;;
10633;SDS011;5365;51.640;8.106;2022-10-30T15:18:07;13.63;;;6.20;;
10633;SDS011;5365;51.640;8.106;2022-10-30T15:20:31;9.80;;;5.32;;
10633;SDS011;5365;51.640;8.106;2022-10-30T15:22:55;6.20;;;5.13;;
10633;SDS011;5365;51.640;8.106;2022-10-30T15:25:21;7.95;;;5.60;;
10633;SDS011;5365;51.640;8.106;2022-10-30T15:27:45;9.23;;;5.55;;
10633;SDS011;5365;51.640;8.106;2022-10-30T15:30:13;9.07;;;5.95;;
10633;SDS011;5365;51.640;8.106;2022-10-30T15:32:40;9.70;;;5.75;;
10633;SDS011;5365;51.640;8.106;2022-10-30T15:35:03;6.47;;;5.43;;
10633;SDS011;5365;51.640;8.106;2022-10-30T15:37:30;12.85;;;6.15;;
10633;SDS011;5365;51.640;8.106;2022-10-30T15:42:39;13.90;;;7.18;;
10633;SDS011;5365;51.640;8.106;2022-10-30T15:45:02;10.98;;;6.00;;
10633;SDS011;5365;51.640;8.106;2022-10-30T15:47:24;11.40;;;6.13;;
10633;SDS011;5365;51.640;8.106;2022-10-30T15:49:49;8.55;;;6.25;;
10633;SDS011;5365;51.640;8.106;2022-10-30T15:52:16;7.65;;;5.80;;
10633;SDS011;5365;51.640;8.106;2022-10-30T15:54:40;15.07;;;10.63;;
10633;SDS011;5365;51.640;8.106;2022-10-30T15:57:04;15.57;;;11.68;;
10633;SDS011;5365;51.640;8.106;2022-10-30T15:59:50;10.93;;;6.88;;
10633;SDS011;5365;51.640;8.106;2022-10-30T16:02:18;13.30;;;7.15;;
10633;SDS011;5365;51.640;8.106;2022-10-30T16:04:42;10.07;;;6.75;;
10633;SDS011;5365;51.640;8.106;2022-10-30T16:07:14;9.75;;;7.10;;
10633;SDS011;5365;51.640;8.106;2022-10-30T16:09:47;10.00;;;6.97;;
10633;SDS011;5365;51.640;8.106;2022-10-30T16:12:15;12.35;;;6.53;;
10633;SDS011;5365;51.640;8.106;2022-10-30T16:14:37;9.27;;;6.72;;
10633;SDS011;5365;51.640;8.106;2022-10-30T16:16:59;12.23;;;8.55;;
10633;SDS011;5365;51.640;8.106;2022-10-30T16:19:24;12.98;;;7.93;;
10633;SDS011;5365;51.640;8.106;2022-10-30T16:21:48;13.60;;;7.70;;
10633;SDS011;5365;51.640;8.106;2022-10-30T16:24:11;11.48;;;7.13;;
10633;SDS011;5365;51.640;8.106;2022-10-30T16:26:34;11.73;;;7.45;;
10633;SDS011;5365;51.640;8.106;2022-10-30T16:29:01;11.05;;;7.72;;
10633;SDS011;5365;51.640;8.106;2022-10-30T16:31:28;11.07;;;6.95;;
10633;SDS011;5365;51.640;8.106;2022-10-30T16:33:54;10.55;;;6.85;;
10633;SDS011;5365;51.640;8.106;2022-10-30T16:36:18;11.35;;;7.35;;
10633;SDS011;5365;51.640;8.106;2022-10-30T16:38:40;9.73;;;7.22;;
10633;SDS011;5365;51.640;8.106;2022-10-30T16:41:05;13.02;;;7.90;;
10633;SDS011;5365;51.640;8.106;2022-10-30T16:43:29;11.90;;;7.65;;
10633;SDS011;5365;51.640;8.106;2022-10-30T16:45:52;14.55;;;8.40;;
10633;SDS011;5365;51.640;8.106;2022-10-30T16:48:22;13.45;;;8.05;;